Latest Weather Observations for Mount Buller

IDV60801

Issued at 7:32 am EST Tuesday 30 August 2016 (issued every 30 minutes, with the page automatically refreshed every 10 minutes)

About weather observations | Map of weather stations | Latest weather observations for VIC | Other Formats
Station Details ID: 083024 Name: MOUNT BULLER Lat: -37.15 Lon: 146.44 Height: 1707.0 m
Data from the previous 72 hours. | See also: Recent months at Mount Buller
Date/Time
EST
Temp
°C
App
Temp
°C
Dew
Point
°C
Rel
Hum
%
Delta-T
°C
Wind Press
QNH
hPa
Press
MSL
hPa
Rain since
9am
mm
Dir  Spd
km/h
Gust
km/h
Spd
kts
Gust
kts
30/07:30am 1.5 -5.8 0.3 92 0.5 N 28 43 15 23 - - 0.0
30/07:00am 1.5 -4.2 0.5 93 0.4 N 20 33 11 18 - - 0.0
30/06:30am 1.5 -5.7 0.6 94 0.4 NNE 28 41 15 22 - - 0.0
30/06:00am 1.5 -6.0 -1.4 81 1.2 NNE 28 37 15 20 - - 0.0
30/05:30am 1.6 -5.5 -1.6 79 1.3 NNE 26 39 14 21 - - 0.0
30/05:20am 1.7 -6.9 -2.2 75 1.5 NNE 33 52 18 28 - - 0.0
30/05:00am 1.6 -6.3 -1.6 79 1.3 NNE 30 43 16 23 - - 0.0
30/04:30am 3.3 -7.2 -5.6 52 3.2 NNE 41 56 22 30 - - 0.0
30/04:00am 1.3 -9.0 -1.4 82 1.1 N 43 54 23 29 - - 0.0
30/03:30am 1.5 -7.9 -3.0 72 1.8 N 37 48 20 26 - - 0.0
30/03:00am 1.9 -7.3 -4.2 64 2.4 NNE 35 46 19 25 - - 0.0
30/02:30am 2.0 -8.6 -3.7 66 2.3 NNE 43 52 23 28 - - 0.0
30/02:00am 2.1 -7.7 -3.0 69 2.0 NNE 39 54 21 29 - - 0.0
30/01:30am 2.0 -8.1 -2.3 73 1.7 NNE 41 56 22 30 - - 0.0
30/01:00am 2.3 -8.3 -1.8 74 1.6 NNE 44 57 24 31 - - 0.0
30/12:30am 2.2 -7.7 -0.9 80 1.3 NNE 41 61 22 33 - - 0.0
30/12:00am 2.4 -5.4 -0.9 79 1.3 NNE 30 48 16 26 - - 0.0
 
Date/Time
EST
Temp
°C
App
Temp
°C
Dew
Point
°C
Rel
Hum
%
Delta-T
°C
Wind Press
QNH
hPa
Press
MSL
hPa
Rain since
9am
mm
Dir  Spd
km/h
Gust
km/h
Spd
kts
Gust
kts
29/11:47pm 2.0 -5.3 0.2 88 0.7 NNE 28 46 15 25 - - 0.0
29/11:30pm 2.7 -6.3 -3.0 66 2.2 NNE 35 46 19 25 - - 0.0
29/11:00pm 2.0 -6.3 -0.4 84 1.0 NNE 33 46 18 25 - - 0.0
29/10:38pm 2.2 -6.1 -0.1 85 1.0 NNE 33 52 18 28 - - 0.0
29/10:30pm 1.9 -6.2 0.0 87 0.8 NNE 32 46 17 25 - - 0.0
29/10:00pm 2.1 -5.0 -1.5 77 1.4 NNE 26 39 14 21 - - 0.0
29/09:30pm 2.1 -4.8 -2.8 70 1.9 NNE 24 33 13 18 - - 0.0
29/09:00pm 1.9 -5.9 -3.6 67 2.2 NNE 28 35 15 19 - - 0.0
29/08:30pm 2.2 -5.8 -2.3 72 1.8 NE 30 39 16 21 - - 0.0
29/08:00pm 1.8 -4.8 -0.6 84 1.0 NNE 24 35 13 19 - - 0.0
29/07:30pm 1.6 -4.7 1.5 99 0.0 NE 24 30 13 16 - - 0.0
29/07:00pm 1.6 -3.0 1.5 99 0.0 NNE 15 19 8 10 - - 0.0
29/06:30pm 1.6 -3.0 1.5 99 0.0 NNE 15 19 8 10 - - 0.0
29/06:00pm 2.0 -1.9 1.3 95 0.3 NNE 11 19 6 10 - - 0.0
29/05:30pm 2.3 -1.1 1.6 95 0.3 ENE 9 17 5 9 - - 0.0
29/05:00pm 2.4 -1.8 1.4 93 0.4 NNE 13 20 7 11 - - 0.0
29/04:30pm 3.0 -2.5 0.7 85 1.0 NNE 19 24 10 13 - - 0.0
29/04:00pm 2.8 -2.5 -0.5 79 1.4 NNE 17 24 9 13 - - 0.0
29/03:30pm 3.2 -1.5 0.6 83 1.1 N 15 20 8 11 - - 0.0
29/03:00pm 3.1 -1.6 0.8 85 1.0 NE 15 22 8 12 - - 0.0
29/02:30pm 2.7 -2.9 -0.1 82 1.2 NNE 19 24 10 13 - - 0.0
29/02:00pm 2.8 -2.0 0.5 85 1.0 NE 15 22 8 12 - - 0.0
29/01:30pm 2.8 -2.0 0.5 85 1.0 N 15 22 8 12 - - 0.0
29/01:00pm 2.6 -1.7 0.7 87 0.8 NNE 13 20 7 11 - - 0.0
29/12:30pm 3.1 -1.7 0.3 82 1.2 NNE 15 19 8 10 - - 0.0
29/12:00pm 2.8 -2.0 0.2 83 1.1 NNE 15 22 8 12 - - 0.0
29/11:30am 2.3 -2.9 0.2 86 0.9 NE 17 22 9 12 - - 0.0
29/11:00am 1.7 -3.9 -0.1 88 0.7 NNE 19 24 10 13 - - 0.0
29/10:30am 2.4 -1.2 0.3 86 0.9 NNE 9 15 5 8 - - 0.0
29/10:00am 2.0 -2.0 0.8 92 0.5 NE 11 17 6 9 - - 0.0
29/09:30am 2.0 -1.6 0.7 91 0.5 ENE 9 15 5 8 - - 0.0
29/09:00am 1.7 -1.8 1.1 96 0.3 NE 9 17 5 9 - - 0.0
29/08:30am 1.3 -2.3 0.3 93 0.4 N 9 13 5 7 - - 0.0
29/08:00am 1.1 -2.1 -0.7 88 0.7 NNW 6 6 3 3 - - 0.0
29/07:30am 1.4 -1.2 0.8 96 0.3 NNE 4 6 2 3 - - 0.0
29/07:00am 0.3 -2.8 0.0 98 0.1 N 6 7 3 4 - - 0.0
29/06:30am 0.1 -3.6 -0.2 98 0.1 NW 9 11 5 6 - - 0.0
29/06:00am 0.3 -3.4 0.0 98 0.1 NW 9 13 5 7 - - 0.0
29/05:30am 0.1 -4.0 0.0 99 0.0 NW 11 15 6 8 - - 0.0
29/05:00am -0.1 -4.6 -0.2 99 0.0 NW 13 15 7 8 - - 0.0
29/04:30am 0.5 -4.3 0.4 99 0.0 NNW 15 20 8 11 - - 0.0
29/04:00am 0.3 -4.9 0.2 99 0.0 NNW 17 22 9 12 - - 0.0
29/03:30am 0.4 -4.8 0.3 99 0.0 NNW 17 24 9 13 - - 0.0
29/03:00am 0.2 -5.6 0.1 99 0.0 NNW 20 28 11 15 - - 0.0
29/02:30am 0.3 -6.2 0.2 99 0.0 NNW 24 32 13 17 - - 0.0
29/02:00am 0.3 -6.2 0.0 98 0.1 NNW 24 32 13 17 - - 0.0
29/01:30am 0.3 -7.1 -0.7 93 0.4 NNW 28 35 15 19 - - 0.0
29/01:00am 0.0 -7.2 -2.1 86 0.8 NNW 26 33 14 18 - - 0.0
29/12:30am 0.2 -5.8 -3.0 79 1.2 NNW 19 22 10 12 - - 0.0
29/12:00am 0.0 -5.5 -2.4 84 0.9 NNW 17 20 9 11 - - 0.0
 
Date/Time
EST
Temp
°C
App
Temp
°C
Dew
Point
°C
Rel
Hum
%
Delta-T
°C
Wind Press
QNH
hPa
Press
MSL
hPa
Rain since
9am
mm
Dir  Spd
km/h
Gust
km/h
Spd
kts
Gust
kts
28/11:30pm 0.3 -5.2 -2.2 83 1.0 NNW 17 20 9 11 - - 0.0
28/11:00pm 0.1 -5.1 -2.4 83 1.0 NNW 15 19 8 10 - - 0.0
28/10:30pm -0.1 -4.9 -2.5 84 0.9 NNW 13 17 7 9 - - 0.0
28/10:00pm 0.0 -3.9 -1.4 90 0.5 NNW 9 13 5 7 - - 0.0
28/09:30pm 0.2 -3.7 -1.2 90 0.6 NNW 9 13 5 7 - - 0.0
28/09:00pm 0.0 -3.7 -0.1 99 0.0 NNE 9 11 5 6 - - 0.0
28/08:30pm 0.2 -3.5 0.1 99 0.0 NNE 9 11 5 6 - - 0.0
28/08:00pm 0.4 -3.2 0.3 99 0.0 NNW 9 13 5 7 - - 0.0
28/07:30pm 0.4 -3.6 0.3 99 0.0 NW 11 17 6 9 - - 0.0
28/07:00pm 0.5 -3.1 0.4 99 0.0 NW 9 11 5 6 - - 0.0
28/06:30pm 0.7 -2.5 0.6 99 0.0 N 7 13 4 7 - - 0.0
28/06:00pm 0.7 -2.9 0.6 99 0.0 NW 9 13 5 7 - - 0.0
28/05:30pm 0.8 -2.5 0.4 97 0.2 NNW 7 15 4 8 - - 0.0
28/05:00pm 1.3 -3.5 0.0 91 0.5 NNW 15 24 8 13 - - 0.0
28/04:30pm 1.2 -2.9 -0.1 91 0.5 NNW 11 19 6 10 - - 0.0
28/04:00pm 1.2 -2.9 0.0 92 0.5 NNW 11 20 6 11 - - 0.0
28/03:30pm 1.4 -2.2 0.4 93 0.4 WNW 9 19 5 10 - - 0.0
28/03:00pm 1.3 -2.3 0.6 95 0.3 NNW 9 17 5 9 - - 0.0
28/02:30pm 1.5 -2.8 0.9 96 0.3 NNW 13 24 7 13 - - 0.0
28/02:00pm 0.8 -3.5 0.7 99 0.0 NNW 13 28 7 15 - - 0.0
28/01:30pm 0.0 -4.8 -0.1 99 0.0 NNW 15 26 8 14 - - 0.0
28/01:00pm 0.0 -5.2 -0.1 99 0.0 NNW 17 24 9 13 - - 0.0
28/12:30pm 0.0 -4.5 -0.1 99 0.0 NNW 13 30 7 16 - - 0.0
28/12:00pm -0.1 -5.0 -0.2 99 0.0 NW 15 28 8 15 - - 0.0
28/11:30am -0.2 -4.7 -0.3 99 0.0 NNW 13 20 7 11 - - 0.0
28/11:00am -0.4 -5.3 -0.5 99 0.0 NW 15 26 8 14 - - 0.0
28/10:30am -0.6 -7.2 -0.7 99 0.0 NNW 24 37 13 20 - - 0.0
28/10:00am -0.8 -6.7 -0.9 99 0.0 NNW 20 35 11 19 - - 0.0
28/09:30am -1.1 -7.4 -1.2 99 0.0 NNW 22 37 12 20 - - 0.0
28/09:00am -1.2 -9.4 -1.3 99 0.0 NW 32 46 17 25 - - 0.0
28/08:30am -1.4 -8.9 -1.5 99 0.0 NW 28 46 15 25 - - 0.0
28/08:19am -1.5 -9.0 -1.6 99 0.0 NNW 28 46 15 25 - - 0.0
28/08:00am -1.6 -9.5 -1.7 99 0.0 NW 30 44 16 24 - - 0.0
28/07:30am -1.6 -8.0 -1.7 99 0.0 NNW 22 39 12 21 - - 0.0
28/07:00am -1.7 -8.5 -1.8 99 0.0 NNW 24 39 13 21 - - 0.0
28/06:45am -1.6 -9.1 -1.7 99 0.0 NNW 28 46 15 25 - - 0.0
28/06:30am -1.6 -8.8 -1.7 99 0.0 NNW 26 43 14 23 - - 0.0
28/06:12am -1.6 -9.9 -1.7 99 0.0 NW 32 50 17 27 - - 0.0
28/06:00am -1.6 -9.1 -1.7 99 0.0 NW 28 44 15 24 - - 0.0
28/05:45am -1.7 -9.3 -1.8 99 0.0 NNW 28 46 15 25 - - 0.0
28/05:30am -1.6 -9.9 -1.7 99 0.0 NNW 32 48 17 26 - - 0.0
28/05:11am -1.6 -9.5 -1.7 99 0.0 NNW 30 48 16 26 - - 0.0
28/05:00am -1.7 -8.5 -1.8 99 0.0 NW 24 43 13 23 - - 0.0
28/04:31am -1.6 -9.1 -1.7 99 0.0 NNW 28 46 15 25 - - 0.0
28/04:30am -1.6 -9.1 -1.7 99 0.0 NNW 28 44 15 24 - - 0.0
28/04:13am -1.6 -9.1 -1.7 99 0.0 NNW 28 46 15 25 - - 0.0
28/04:00am -1.6 -8.8 -1.7 99 0.0 NNW 26 43 14 23 - - 0.0
28/03:30am -1.6 -9.5 -1.7 99 0.0 N 30 50 16 27 - - 0.0
28/03:21am -1.6 -9.1 -1.7 99 0.0 NNW 28 46 15 25 - - 0.0
28/03:00am -1.6 -9.1 -1.7 99 0.0 NNW 28 44 15 24 - - 0.0
28/02:42am -1.5 -9.0 -1.6 99 0.0 NNW 28 50 15 27 - - 0.0
28/02:30am -1.5 -8.6 -1.6 99 0.0 NNW 26 44 14 24 - - 0.0
28/02:03am -1.5 -9.0 -1.6 99 0.0 NNW 28 50 15 27 - - 0.0
28/02:00am -1.5 -9.0 -1.6 99 0.0 NNW 28 43 15 23 - - 0.0
28/01:45am -1.5 -9.0 -1.6 99 0.0 NNW 28 48 15 26 - - 0.0
28/01:30am -1.6 -10.5 -1.7 99 0.0 NNW 35 50 19 27 - - 0.0
28/01:24am -1.6 -9.9 -1.7 99 0.0 NNW 32 50 17 27 - - 0.0
28/01:00am -1.7 -9.3 -1.8 99 0.0 NNW 28 41 15 22 - - 0.0
28/12:44am -1.8 -10.1 -1.9 99 -0.1 NNW 32 59 17 32 - - 0.0
28/12:30am -1.8 -10.1 -1.9 99 -0.1 NNW 32 46 17 25 - - 0.0
28/12:18am -1.8 -9.7 -1.9 99 -0.1 NNW 30 50 16 27 - - 0.0
28/12:00am -1.9 -10.8 -2.0 99 -0.1 NNW 35 48 19 26 - - 0.0
 
Date/Time
EST
Temp
°C
App
Temp
°C
Dew
Point
°C
Rel
Hum
%
Delta-T
°C
Wind Press
QNH
hPa
Press
MSL
hPa
Rain since
9am
mm
Dir  Spd
km/h
Gust
km/h
Spd
kts
Gust
kts
27/11:35pm -1.8 -10.7 -1.9 99 -0.1 NNW 35 54 19 29 - - 0.0
27/11:30pm -1.8 -11.5 -1.9 99 -0.1 NNW 39 54 21 29 - - 0.0
27/11:00pm -1.9 -11.6 -2.0 99 -0.1 N 39 59 21 32 - - 0.0
27/10:30pm -1.9 -11.9 -2.0 99 -0.1 NNW 41 63 22 34 - - 0.0
27/10:00pm -1.9 -12.3 -2.0 99 -0.1 NNW 43 61 23 33 - - 0.0
27/09:38pm -1.9 -11.9 -2.0 99 -0.1 NNW 41 59 22 32 - - 0.0
27/09:30pm -2.0 -12.1 -2.1 99 -0.1 NNW 41 54 22 29 - - 0.0
27/09:23pm -2.1 -11.8 -2.2 99 -0.1 NNW 39 57 21 31 - - 0.0
27/09:00pm -2.2 -11.9 -2.3 99 -0.1 NNW 39 54 21 29 - - 0.0
27/08:30pm -2.3 -12.4 -2.4 99 -0.1 NNW 41 54 22 29 - - 0.0
27/08:00pm -2.2 -11.9 -2.3 99 -0.1 NNW 39 48 21 26 - - 0.0
27/07:37pm -2.4 -11.4 -2.5 99 -0.1 NNW 35 54 19 29 - - 0.0
27/07:30pm -2.3 -11.6 -2.4 99 -0.1 NNW 37 50 20 27 - - 0.0
27/07:00pm -2.4 -11.8 -2.5 99 -0.1 NNW 37 50 20 27 - - 0.0
27/06:30pm -2.4 -11.4 -2.5 99 -0.1 NNW 35 46 19 25 - - 0.0
27/06:00pm -2.4 -11.4 -2.5 99 -0.1 NNW 35 46 19 25 - - 0.0
27/05:30pm -2.3 -10.9 -2.4 99 -0.1 NNW 33 39 18 21 - - 0.0
27/05:00pm -2.3 -9.9 -2.4 99 -0.1 NNW 28 35 15 19 - - 0.0
27/04:30pm -2.4 -11.0 -2.5 99 -0.1 NNW 33 46 18 25 - - 0.0
27/04:00pm -2.3 -10.7 -2.4 99 -0.1 NNW 32 44 17 24 - - 0.0
27/03:30pm -2.1 -9.7 -2.2 99 -0.1 NNW 28 39 15 21 - - 0.0
27/03:00pm -1.9 -10.2 -2.0 99 -0.1 NNW 32 44 17 24 - - 0.0
27/02:30pm -1.4 -9.3 -1.5 99 0.0 NNW 30 37 16 20 - - 0.0
27/02:00pm -1.6 -8.8 -1.7 99 0.0 N 26 39 14 21 - - 0.0
27/01:30pm -1.8 -8.6 -1.9 99 -0.1 NNW 24 37 13 20 - - 0.0
27/01:00pm -1.9 -9.1 -2.0 99 -0.1 N 26 39 14 21 - - 0.0
27/12:30pm -2.0 -8.5 -2.1 99 -0.1 NNW 22 35 12 19 - - 0.0
27/12:00pm -2.5 -9.4 -2.6 99 -0.1 NNW 24 37 13 20 - - 0.0
27/11:30am -2.8 -9.0 -2.9 99 -0.1 NNW 20 30 11 16 - - 0.0
27/11:00am -3.3 -9.5 -3.4 99 -0.1 NW 20 32 11 17 - - 0.0
27/10:30am -3.3 -9.9 -3.4 99 -0.1 NW 22 37 12 20 - - 0.0
27/10:00am -3.6 -10.2 -3.7 99 -0.1 NW 22 37 12 20 - - 0.0
27/09:30am -3.7 -11.5 -3.8 99 -0.1 WNW 28 39 15 21 - - 0.0
27/09:00am -3.7 -10.4 -3.8 99 -0.1 WNW 22 39 12 21 - - 0.0
27/08:30am -3.9 -11.3 -4.0 99 -0.1 NW 26 39 14 21 - - 0.0
27/08:00am -4.0 -11.5 -4.1 99 -0.1 NW 26 33 14 18 - - 0.0

Other Formats:

Comma delimited format used in spreadsheet applications
http://www.bom.gov.au/fwo/IDV60801/IDV60801.94894.axf

JavaScript Object Notation format (JSON) in row-major order
http://www.bom.gov.au/fwo/IDV60801/IDV60801.94894.json